createdAt,value
2022-10-05T00:00:18.995Z,9.20
2022-10-05T00:02:48.850Z,9.20
2022-10-05T00:05:26.838Z,9.20
2022-10-05T00:07:58.753Z,9.20
2022-10-05T00:10:27.303Z,9.10
2022-10-05T00:12:56.002Z,9.00
2022-10-05T00:15:25.874Z,9.10
2022-10-05T00:17:54.495Z,9.10
2022-10-05T00:20:25.281Z,9.00
2022-10-05T00:22:59.224Z,9.00
2022-10-05T00:25:27.889Z,9.10
2022-10-05T00:27:58.392Z,9.10
2022-10-05T00:30:34.030Z,9.00
2022-10-05T00:33:02.533Z,9.00
2022-10-05T00:35:31.579Z,9.00
2022-10-05T00:38:00.265Z,9.00
2022-10-05T00:40:42.467Z,9.20
2022-10-05T00:43:41.249Z,9.20
2022-10-05T00:46:17.386Z,9.10
2022-10-05T00:48:55.252Z,9.20
2022-10-05T00:51:27.313Z,9.10
2022-10-05T00:54:12.542Z,9.10
2022-10-05T00:57:01.301Z,9.10
2022-10-05T00:59:44.129Z,9.10
2022-10-05T01:02:19.222Z,9.10
2022-10-05T01:04:54.086Z,9.00
2022-10-05T01:07:33.648Z,9.10
2022-10-05T01:10:10.976Z,9.10
2022-10-05T01:12:43.661Z,9.20
2022-10-05T01:15:23.135Z,9.20
2022-10-05T01:17:58.196Z,9.30
2022-10-05T01:20:42.085Z,9.30
2022-10-05T01:23:33.772Z,9.40
2022-10-05T01:26:16.719Z,9.30
2022-10-05T01:28:53.425Z,9.40
2022-10-05T01:31:29.670Z,9.40
2022-10-05T01:34:11.333Z,9.40
2022-10-05T01:36:46.738Z,9.50
2022-10-05T01:39:25.305Z,9.40
2022-10-05T01:42:06.571Z,9.40
2022-10-05T01:44:43.973Z,9.40
2022-10-05T01:47:22.405Z,9.40
2022-10-05T01:50:01.105Z,9.50
2022-10-05T01:52:40.566Z,9.40
2022-10-05T01:55:19.802Z,9.40
2022-10-05T01:58:07.036Z,9.40
2022-10-05T02:00:46.814Z,9.30
2022-10-05T02:03:20.357Z,9.30
2022-10-05T02:05:53.811Z,9.40
2022-10-05T02:08:27.644Z,9.30
2022-10-05T02:11:03.007Z,9.30
2022-10-05T02:13:35.693Z,9.40
2022-10-05T02:16:10.293Z,9.30
2022-10-05T02:18:44.496Z,9.30
2022-10-05T02:21:13.164Z,9.30
2022-10-05T02:23:44.059Z,9.30
2022-10-05T02:26:13.789Z,9.30
2022-10-05T02:28:48.665Z,9.30
2022-10-05T02:31:23.681Z,9.30
2022-10-05T02:33:52.235Z,9.30
2022-10-05T02:36:30.440Z,9.40
2022-10-05T02:39:05.866Z,9.40
2022-10-05T02:41:43.781Z,9.40
2022-10-05T02:44:21.550Z,9.50
2022-10-05T02:46:59.002Z,9.60
2022-10-05T02:49:34.429Z,9.60
2022-10-05T02:52:10.966Z,9.60
2022-10-05T02:54:47.178Z,9.70
2022-10-05T02:57:24.343Z,9.60
2022-10-05T03:00:04.537Z,9.70
2022-10-05T03:02:39.550Z,9.70
2022-10-05T03:05:19.929Z,9.60
2022-10-05T03:07:56.532Z,9.60
2022-10-05T03:10:30.885Z,9.60
2022-10-05T03:13:06.547Z,9.60
2022-10-05T03:15:59.913Z,9.60
2022-10-05T03:18:45.733Z,9.60
2022-10-05T03:21:27.537Z,9.50
2022-10-05T03:24:17.258Z,9.50
2022-10-05T03:26:53.823Z,9.50
2022-10-05T03:29:30.442Z,9.50
2022-10-05T03:32:08.768Z,9.50
2022-10-05T03:34:47.223Z,9.40
2022-10-05T03:37:23.828Z,9.50
2022-10-05T03:39:56.954Z,9.50
2022-10-05T03:42:36.143Z,9.40
2022-10-05T03:45:10.412Z,9.40
2022-10-05T03:47:48.565Z,9.40
2022-10-05T03:50:32.317Z,9.40
2022-10-05T03:53:04.952Z,9.30
2022-10-05T03:55:39.031Z,9.30
2022-10-05T03:58:12.299Z,9.30
2022-10-05T04:00:46.112Z,9.30
2022-10-05T04:03:21.250Z,9.20
2022-10-05T04:05:56.256Z,9.20
2022-10-05T04:08:31.828Z,9.20
2022-10-05T04:11:05.587Z,9.10
2022-10-05T04:13:38.399Z,9.20
2022-10-05T04:16:12.447Z,9.20
2022-10-05T04:18:45.890Z,9.10
2022-10-05T04:21:23.921Z,9.10
2022-10-05T04:24:00.021Z,9.10
2022-10-05T04:26:35.773Z,9.10
2022-10-05T04:29:09.561Z,9.00
2022-10-05T04:31:53.148Z,9.00
2022-10-05T04:34:40.178Z,9.00
2022-10-05T04:37:20.119Z,8.90
2022-10-05T04:40:09.788Z,8.90
2022-10-05T04:42:45.432Z,8.80
2022-10-05T04:45:26.961Z,8.70
2022-10-05T04:48:22.234Z,8.70
2022-10-05T04:51:08.798Z,8.60
2022-10-05T04:53:48.872Z,8.60
2022-10-05T04:56:21.350Z,8.50
2022-10-05T04:59:10.278Z,8.50
2022-10-05T05:01:52.531Z,8.50
2022-10-05T05:04:42.102Z,8.50
2022-10-05T05:07:22.732Z,8.60
2022-10-05T05:10:19.706Z,8.60
2022-10-05T05:12:58.602Z,8.60
2022-10-05T05:15:41.346Z,8.60
2022-10-05T05:18:39.422Z,8.70
2022-10-05T05:21:18.795Z,8.70
2022-10-05T05:23:53.017Z,8.70
2022-10-05T05:26:32.039Z,8.80
2022-10-05T05:29:15.148Z,8.80
2022-10-05T05:31:48.826Z,9.00
2022-10-05T05:34:34.961Z,9.00
2022-10-05T05:37:11.493Z,9.10
2022-10-05T05:39:47.155Z,9.20
2022-10-05T05:42:28.592Z,9.20
2022-10-05T05:45:04.027Z,9.20
2022-10-05T05:47:37.880Z,9.30
2022-10-05T05:50:22.026Z,9.40
2022-10-05T05:52:54.449Z,9.50
2022-10-05T05:55:30.139Z,9.50
2022-10-05T05:58:07.557Z,9.50
2022-10-05T06:00:42.781Z,9.50
2022-10-05T06:03:17.796Z,9.70
2022-10-05T06:05:50.779Z,9.80
2022-10-05T06:08:28.776Z,9.90
2022-10-05T06:11:07.720Z,10.00
2022-10-05T06:13:41.276Z,10.20
2022-10-05T06:16:18.728Z,10.20
2022-10-05T06:18:52.753Z,10.40
2022-10-05T06:21:27.181Z,10.60
2022-10-05T06:24:00.093Z,10.70
2022-10-05T06:26:47.237Z,10.80
2022-10-05T06:29:23.831Z,10.90
2022-10-05T06:32:05.930Z,10.90
2022-10-05T06:34:56.932Z,10.90
2022-10-05T06:37:49.499Z,10.90
2022-10-05T06:40:28.758Z,10.90
2022-10-05T06:43:11.039Z,11.00
2022-10-05T06:46:12.939Z,11.00
2022-10-05T06:49:14.983Z,10.90
2022-10-05T06:52:10.495Z,11.00
2022-10-05T06:54:56.376Z,11.00
2022-10-05T06:57:44.359Z,11.20
2022-10-05T07:00:19.429Z,11.30
2022-10-05T07:02:58.613Z,11.30
2022-10-05T07:05:56.072Z,11.40
2022-10-05T07:08:34.784Z,11.50
2022-10-05T07:11:15.571Z,11.60
2022-10-05T07:14:04.066Z,11.60
2022-10-05T07:16:45.534Z,11.60
2022-10-05T07:19:27.801Z,11.70
2022-10-05T07:22:10.514Z,11.90
2022-10-05T07:24:46.031Z,12.10
2022-10-05T07:27:18.865Z,12.40
2022-10-05T07:29:57.661Z,12.50
2022-10-05T07:32:34.698Z,12.50
2022-10-05T07:35:33.153Z,12.60
2022-10-05T07:38:08.134Z,12.80
2022-10-05T07:40:42.916Z,12.80
2022-10-05T07:43:32.056Z,12.90
2022-10-05T07:46:18.427Z,13.00
2022-10-05T07:48:57.864Z,13.00
2022-10-05T07:51:34.159Z,13.10
2022-10-05T07:54:14.675Z,13.20
2022-10-05T07:56:45.394Z,13.20
2022-10-05T07:59:26.118Z,13.20
2022-10-05T08:02:02.823Z,13.30
2022-10-05T08:04:41.750Z,13.50
2022-10-05T08:07:16.790Z,13.60
2022-10-05T08:09:51.618Z,13.60
2022-10-05T08:12:31.700Z,13.70
2022-10-05T08:15:06.371Z,13.80
2022-10-05T08:17:42.229Z,13.90
2022-10-05T08:20:39.906Z,13.90
2022-10-05T08:23:23.278Z,13.90
2022-10-05T08:26:16.139Z,13.90
2022-10-05T08:28:53.122Z,13.90
2022-10-05T08:31:24.934Z,14.00
2022-10-05T08:33:59.674Z,14.10
2022-10-05T08:36:45.182Z,14.20
2022-10-05T08:39:19.363Z,14.40
2022-10-05T08:42:19.792Z,14.60
2022-10-05T08:45:11.778Z,14.70
2022-10-05T08:48:05.863Z,14.70
2022-10-05T08:51:00.060Z,14.70
2022-10-05T08:53:46.263Z,14.80
2022-10-05T08:56:40.196Z,14.70
2022-10-05T08:59:43.319Z,14.70
2022-10-05T09:02:25.862Z,14.70
2022-10-05T09:05:11.287Z,14.80
2022-10-05T09:08:15.955Z,15.00
2022-10-05T09:11:13.515Z,15.30
2022-10-05T09:14:04.594Z,15.50
2022-10-05T09:17:09.667Z,15.60
2022-10-05T09:20:16.823Z,15.70
2022-10-05T09:22:59.596Z,15.80
2022-10-05T09:25:43.310Z,15.90
2022-10-05T09:28:33.829Z,15.90
2022-10-05T09:31:26.343Z,16.20
2022-10-05T09:34:39.667Z,16.20
2022-10-05T09:37:37.463Z,16.10
2022-10-05T09:40:48.488Z,16.10
2022-10-05T09:43:47.675Z,16.30
2022-10-05T09:46:51.600Z,16.30
2022-10-05T09:49:49.068Z,16.30
2022-10-05T09:52:54.184Z,16.10
2022-10-05T09:56:01.236Z,16.10
2022-10-05T09:59:14.852Z,16.10
2022-10-05T10:02:05.505Z,16.10
2022-10-05T10:05:07.512Z,16.30
2022-10-05T10:08:07.182Z,16.20
2022-10-05T10:11:09.842Z,16.20
2022-10-05T10:13:53.896Z,16.20
2022-10-05T10:16:41.886Z,16.20
2022-10-05T10:19:48.118Z,16.20
2022-10-05T10:22:43.096Z,16.30
2022-10-05T10:25:47.332Z,16.60
2022-10-05T10:28:44.231Z,16.60
2022-10-05T10:31:32.775Z,16.60
2022-10-05T10:34:20.234Z,16.70
2022-10-05T10:37:14.276Z,16.80
2022-10-05T10:40:04.357Z,16.90
2022-10-05T10:42:42.874Z,16.90
2022-10-05T10:45:20.660Z,16.90
2022-10-05T10:48:01.925Z,17.00
2022-10-05T10:51:15.754Z,17.20
2022-10-05T10:54:15.028Z,17.40
2022-10-05T10:56:51.938Z,17.30
2022-10-05T10:59:56.780Z,17.20
2022-10-05T11:02:42.299Z,17.30
2022-10-05T11:05:33.795Z,17.20
2022-10-05T11:08:38.872Z,17.20
2022-10-05T11:11:42.718Z,17.30
2022-10-05T11:14:43.924Z,17.40
2022-10-05T11:17:40.881Z,17.50
2022-10-05T11:20:28.653Z,17.70
2022-10-05T11:23:13.212Z,17.60
2022-10-05T11:25:56.327Z,17.60
2022-10-05T11:28:53.797Z,17.70
2022-10-05T11:32:00.008Z,17.80
2022-10-05T11:34:53.121Z,17.90
2022-10-05T11:37:45.656Z,18.00
2022-10-05T11:40:39.536Z,18.20
2022-10-05T11:43:37.935Z,18.20
2022-10-05T11:46:14.554Z,18.10
2022-10-05T11:49:14.968Z,18.10
2022-10-05T11:51:53.311Z,18.10
2022-10-05T11:55:05.994Z,17.90
2022-10-05T11:57:33.799Z,17.70
2022-10-05T12:00:12.324Z,17.60
2022-10-05T12:02:57.345Z,17.60
2022-10-05T12:05:33.738Z,17.60
2022-10-05T12:08:18.355Z,17.50
2022-10-05T12:10:57.313Z,17.50
2022-10-05T12:13:36.800Z,17.60
2022-10-05T12:16:11.384Z,17.60
2022-10-05T12:18:49.602Z,17.60
2022-10-05T12:21:28.653Z,17.60
2022-10-05T12:24:02.564Z,17.70
2022-10-05T12:26:35.530Z,17.80
2022-10-05T12:29:15.672Z,17.80
2022-10-05T12:31:55.514Z,17.30
2022-10-05T12:34:48.689Z,18.20
2022-10-05T12:37:38.361Z,18.30
2022-10-05T12:40:19.641Z,18.40
2022-10-05T12:42:55.858Z,18.50
2022-10-05T12:45:36.313Z,18.90
2022-10-05T12:48:29.176Z,18.80
2022-10-05T12:51:01.697Z,18.70
2022-10-05T12:53:42.093Z,18.80
2022-10-05T12:56:17.059Z,18.70
2022-10-05T12:58:53.766Z,18.70
2022-10-05T13:01:34.947Z,18.50
2022-10-05T13:04:14.752Z,18.20
2022-10-05T13:06:49.490Z,18.30
2022-10-05T13:09:26.546Z,18.20
2022-10-05T13:12:00.473Z,18.20
2022-10-05T13:14:47.719Z,18.10
2022-10-05T13:17:24.536Z,18.10
2022-10-05T13:19:59.013Z,18.20
2022-10-05T13:22:35.393Z,18.30
2022-10-05T13:25:19.305Z,18.20
2022-10-05T13:27:54.393Z,18.20
2022-10-05T13:30:23.130Z,18.20
2022-10-05T13:32:57.934Z,18.30
2022-10-05T13:35:40.490Z,18.30
2022-10-05T13:38:19.200Z,18.40
2022-10-05T13:40:54.499Z,18.40
2022-10-05T13:43:29.156Z,18.50
2022-10-05T13:46:07.956Z,18.50
2022-10-05T13:49:01.428Z,18.50
2022-10-05T13:51:40.724Z,18.60
2022-10-05T13:54:18.557Z,18.50
2022-10-05T13:56:55.458Z,18.40
2022-10-05T13:59:31.553Z,18.50
2022-10-05T14:02:05.902Z,18.50
2022-10-05T14:04:46.737Z,18.60
2022-10-05T14:07:24.818Z,18.70
2022-10-05T14:09:53.578Z,18.80
2022-10-05T14:12:24.405Z,18.90
2022-10-05T14:14:54.575Z,19.00
2022-10-05T14:17:39.115Z,19.10
2022-10-05T14:20:26.064Z,19.10
2022-10-05T14:22:58.431Z,18.90
2022-10-05T14:25:28.139Z,18.70
2022-10-05T14:28:04.773Z,18.70
2022-10-05T14:30:35.012Z,18.70
2022-10-05T14:33:17.201Z,18.70
2022-10-05T14:35:50.308Z,18.70
2022-10-05T14:38:21.963Z,18.60
2022-10-05T14:41:19.095Z,18.60
2022-10-05T14:43:54.556Z,18.70
2022-10-05T14:46:28.149Z,18.60
2022-10-05T14:49:17.831Z,18.60
2022-10-05T14:51:46.400Z,18.60
2022-10-05T14:54:27.536Z,18.50
2022-10-05T14:57:04.411Z,18.50
2022-10-05T15:00:01.425Z,18.50
2022-10-05T15:02:55.586Z,18.40
2022-10-05T15:05:31.330Z,18.40
2022-10-05T15:08:15.690Z,18.40
2022-10-05T15:10:51.954Z,18.50
2022-10-05T15:13:23.349Z,18.40
2022-10-05T15:15:57.584Z,18.40
2022-10-05T15:18:37.513Z,18.40
2022-10-05T15:21:35.717Z,18.40
2022-10-05T15:24:09.331Z,18.40
2022-10-05T15:26:49.171Z,18.40
2022-10-05T15:29:31.749Z,18.40
2022-10-05T15:32:14.523Z,18.50
2022-10-05T15:34:50.316Z,18.70
2022-10-05T15:37:27.231Z,18.70
2022-10-05T15:39:58.203Z,18.70
2022-10-05T15:42:36.460Z,18.60
2022-10-05T15:45:15.726Z,18.50
2022-10-05T15:47:52.368Z,18.40
2022-10-05T15:50:25.183Z,18.40
2022-10-05T15:53:02.231Z,18.30
2022-10-05T15:55:48.856Z,18.30
2022-10-05T15:58:32.142Z,18.10
2022-10-05T16:01:08.601Z,18.00
2022-10-05T16:03:49.312Z,17.80
2022-10-05T16:06:51.808Z,17.60
2022-10-05T16:09:56.167Z,17.50
2022-10-05T16:12:37.354Z,17.40
2022-10-05T16:15:26.573Z,17.20
2022-10-05T16:18:32.249Z,17.10
2022-10-05T16:21:14.126Z,17.00
2022-10-05T16:23:58.645Z,16.80
2022-10-05T16:26:38.619Z,16.70
2022-10-05T16:29:11.332Z,16.70
2022-10-05T16:31:49.093Z,16.50
2022-10-05T16:37:03.764Z,16.20
2022-10-05T16:39:49.748Z,16.20
2022-10-05T16:42:30.844Z,16.00
2022-10-05T16:45:08.907Z,15.80
2022-10-05T16:47:47.885Z,15.70
2022-10-05T16:50:24.455Z,15.60
2022-10-05T16:52:59.914Z,15.50
2022-10-05T16:55:35.500Z,15.30
2022-10-05T16:58:12.719Z,15.10
2022-10-05T17:01:06.219Z,15.00
2022-10-05T17:03:49.591Z,15.00
2022-10-05T17:06:40.096Z,14.90
2022-10-05T17:09:34.872Z,14.70
2022-10-05T17:12:16.980Z,14.60
2022-10-05T17:15:00.320Z,14.50
2022-10-05T17:17:38.556Z,14.40
2022-10-05T17:20:32.007Z,14.40
2022-10-05T17:23:16.915Z,14.30
2022-10-05T17:25:55.143Z,14.30
2022-10-05T17:28:37.848Z,14.20
2022-10-05T17:31:17.046Z,14.20
2022-10-05T17:34:28.400Z,14.10
2022-10-05T17:36:59.738Z,14.10
2022-10-05T17:39:50.381Z,14.00
2022-10-05T17:42:49.188Z,14.10
2022-10-05T17:45:55.050Z,14.00
2022-10-05T17:48:44.091Z,14.00
2022-10-05T17:51:37.041Z,14.00
2022-10-05T17:54:40.695Z,14.00
2022-10-05T17:57:20.900Z,14.00
2022-10-05T18:00:00.761Z,14.00
2022-10-05T18:02:43.854Z,14.00
2022-10-05T18:05:25.697Z,13.90
2022-10-05T18:08:29.042Z,13.90
2022-10-05T18:11:17.067Z,13.80
2022-10-05T18:13:50.002Z,13.80
2022-10-05T18:16:55.194Z,13.70
2022-10-05T18:19:25.651Z,13.70
2022-10-05T18:22:03.403Z,13.60
2022-10-05T18:25:03.863Z,13.60
2022-10-05T18:28:00.836Z,13.60
2022-10-05T18:30:35.022Z,13.50
2022-10-05T18:33:52.329Z,13.50
2022-10-05T18:36:37.892Z,13.50
2022-10-05T18:39:21.439Z,13.50
2022-10-05T18:42:02.695Z,13.50
2022-10-05T18:44:40.054Z,13.40
2022-10-05T18:47:18.111Z,13.30
2022-10-05T18:50:16.877Z,13.30
2022-10-05T18:53:06.755Z,13.30
2022-10-05T18:55:40.328Z,13.30
2022-10-05T18:58:21.339Z,13.30
2022-10-05T19:01:19.817Z,13.30
2022-10-05T19:04:02.094Z,13.30
2022-10-05T19:06:34.082Z,13.20
2022-10-05T19:09:15.998Z,13.20
2022-10-05T19:11:51.599Z,13.10
2022-10-05T19:14:32.261Z,13.10
2022-10-05T19:17:13.699Z,13.20
2022-10-05T19:19:58.128Z,13.20
2022-10-05T19:22:40.318Z,13.20
2022-10-05T19:25:25.169Z,13.10
2022-10-05T19:28:03.360Z,13.10
2022-10-05T19:30:43.029Z,13.10
2022-10-05T19:33:29.291Z,13.00
2022-10-05T19:36:24.882Z,13.00
2022-10-05T19:39:03.427Z,12.90
2022-10-05T19:41:44.769Z,12.80
2022-10-05T19:44:20.826Z,12.80
2022-10-05T19:47:00.796Z,12.80
2022-10-05T19:49:49.095Z,12.70
2022-10-05T19:52:26.484Z,12.70
2022-10-05T19:55:13.922Z,12.50
2022-10-05T19:57:51.382Z,12.50
2022-10-05T20:00:24.632Z,12.40
2022-10-05T20:03:08.627Z,12.40
2022-10-05T20:05:37.327Z,12.50
2022-10-05T20:08:06.066Z,12.40
2022-10-05T20:10:35.099Z,12.40
2022-10-05T20:13:08.965Z,12.40
2022-10-05T20:16:06.745Z,12.30
2022-10-05T20:19:07.026Z,12.20
2022-10-05T20:21:42.306Z,12.10
2022-10-05T20:24:12.850Z,12.00
2022-10-05T20:27:01.373Z,12.00
2022-10-05T20:29:32.991Z,12.00
2022-10-05T20:32:01.824Z,12.00
2022-10-05T20:34:31.752Z,12.00
2022-10-05T20:37:00.244Z,11.90
2022-10-05T20:39:30.461Z,11.90
2022-10-05T20:41:59.491Z,11.90
2022-10-05T20:44:28.245Z,11.80
2022-10-05T20:46:58.649Z,11.70
2022-10-05T20:49:27.366Z,11.70
2022-10-05T20:51:56.528Z,11.80
2022-10-05T20:54:26.186Z,11.80
2022-10-05T20:56:55.847Z,11.80
2022-10-05T20:59:25.148Z,11.80
2022-10-05T21:01:53.676Z,11.80
2022-10-05T21:04:25.740Z,11.70
2022-10-05T21:06:54.958Z,11.70
2022-10-05T21:09:23.478Z,11.70
2022-10-05T21:11:52.913Z,11.70
2022-10-05T21:14:22.053Z,11.60
2022-10-05T21:16:50.691Z,11.60
2022-10-05T21:19:19.191Z,11.60
2022-10-05T21:21:49.051Z,11.60
2022-10-05T21:24:17.726Z,11.60
2022-10-05T21:26:46.612Z,11.60
2022-10-05T21:29:15.237Z,11.60
2022-10-05T21:31:43.874Z,11.60
2022-10-05T21:34:12.420Z,11.60
2022-10-05T21:36:40.988Z,11.60
2022-10-05T21:39:10.846Z,11.70
2022-10-05T21:41:39.510Z,11.60
2022-10-05T21:44:08.078Z,11.70
2022-10-05T21:46:37.770Z,11.70
2022-10-05T21:49:07.703Z,11.70
2022-10-05T21:51:37.500Z,11.70
2022-10-05T21:54:12.269Z,11.70
2022-10-05T21:56:44.174Z,11.70
2022-10-05T21:59:15.810Z,11.60
2022-10-05T22:01:44.365Z,11.60
2022-10-05T22:04:12.816Z,11.60
2022-10-05T22:06:41.338Z,11.60
2022-10-05T22:09:12.073Z,11.50
2022-10-05T22:11:40.558Z,11.60
2022-10-05T22:14:09.232Z,11.60
2022-10-05T22:16:40.110Z,11.60
2022-10-05T22:19:14.683Z,11.50
2022-10-05T22:21:43.256Z,11.50
2022-10-05T22:24:13.204Z,11.60
2022-10-05T22:26:42.915Z,11.50
2022-10-05T22:29:11.446Z,11.60
2022-10-05T22:31:40.290Z,11.50
2022-10-05T22:34:08.849Z,11.50
2022-10-05T22:36:37.575Z,11.50
2022-10-05T22:39:06.057Z,11.50
2022-10-05T22:41:35.898Z,11.50
2022-10-05T22:44:04.442Z,11.40
2022-10-05T22:46:32.898Z,11.50
2022-10-05T22:49:01.431Z,11.40
2022-10-05T22:51:30.020Z,11.40
2022-10-05T22:53:58.615Z,11.50
2022-10-05T22:56:27.260Z,11.50
2022-10-05T22:58:57.096Z,11.40
2022-10-05T23:01:25.626Z,11.40
2022-10-05T23:03:55.375Z,11.30
2022-10-05T23:06:26.455Z,11.30
2022-10-05T23:08:55.995Z,11.30
2022-10-05T23:11:26.363Z,11.30
2022-10-05T23:13:57.538Z,11.20
2022-10-05T23:16:28.286Z,11.20
2022-10-05T23:18:57.553Z,11.20
2022-10-05T23:21:28.799Z,11.30
2022-10-05T23:23:57.283Z,11.30
2022-10-05T23:26:26.643Z,11.30
2022-10-05T23:28:56.462Z,11.30
2022-10-05T23:31:27.077Z,11.30
2022-10-05T23:33:56.133Z,11.30
2022-10-05T23:36:26.514Z,11.30
2022-10-05T23:38:55.246Z,11.30
2022-10-05T23:41:24.913Z,11.30
2022-10-05T23:43:55.137Z,11.30
2022-10-05T23:46:25.181Z,11.40
2022-10-05T23:48:54.178Z,11.40
2022-10-05T23:51:22.593Z,11.40
2022-10-05T23:53:51.064Z,11.40
2022-10-05T23:56:19.512Z,11.40
2022-10-05T23:58:48.105Z,11.40
